Madison, AL

1:20 AM CDT on September 03, 2015 (GMT -0500)
Huntsville International | | Change Station
CLOSE
Current Station
Airport
Location: Huntsville,
Elevation: 643 ft
Nearby Weather Stations

Elev 643 ft 34.64 °N, 86.79 °W | Updated 27 minutes ago

Overcast
Overcast
76 °F
Feels Like 76 °F
N
4
Wind Variable Wind from South

Today
High -- | Low -- °F
--% Chance of Precip.
Yesterday
High -- | Low -- °F
Precip. -- in
6:21 AM 7:11 PM
Waning Gibbous, 73% visible
Pressure 29.99 in
Visibility 7.0 miles
Clouds Clear
Dew Point 72 °F
Humidity 87%
Rainfall 0.00 in
Snow Depth Not available.
UV 0 out of 12
Pollen 9.10 out of 12
Air Quality Not available.
Flu Activity Not available.
METAR KHSV 030553Z AUTO 17003KT 7SM CLR 24/22 A3001 RMK AO2 SLP155 T02440222 10272 20239 403170217 58005
Pressure 29.99 in
Visibility 7.0 miles
Clouds Clear
Dew Point 72 °F
Humidity 87%
Rainfall 0.00 in
Snow Depth Not available.
UV 0 out of 12
Pollen 9.10 out of 12
Air Quality Not available.
Flu Activity Not available.
METAR KHSV 030553Z AUTO 17003KT 7SM CLR 24/22 A3001 RMK AO2 SLP155 T02440222 10272 20239 403170217 58005

10-Day Weather Forecast

×

Almanac

Astronomy

Sep. 03, 2015 Rise Set
Actual Time
Civil Twilight
Nautical Twilight
Astronomical Twilight
Moon
Length of Visible Light
Length of Day
Tomorrow will be .
, % of the Moon is Illuminated

Today's Extremes

State Highs State Lows

Community

WunderPhotos

Upload Photos

1,851,913 photos uploaded!

WunderBlogs® & News

Nearby

Air Quality

  Air Quality AQ Index Pollutant
Not available.

Snow Depth

Station Depth Elevation

Earthquake Activity

City Distance Mag. Time & Date
Minimum magnitude displayed is 2.5.

Coastal Water Temperatures

Place Temperature

Stations

Nearby Weather Stations

Station Location Temp. Windchill Dew Point Humidity Wind Precip. Elev Updated Type